Terminal Aerodrome Forecast
Issued by NWS Pocatello, ID

Home | Current Version | Previous Version | Text Only | Print | Product List | Glossary On
Versions: 1 2 3 4 5 6 7 8 9 10 11 12
000
FTUS45 KPIH 281700
TAFIDA
TAF
KIDA 281720Z 2818/2918 VRB05KT P6SM VCSH SCT110 BKN150
     FM291000 VRB05KT P6SM VCTS SCT080 BKN100CB=

USA.gov is the U.S. government's official web portal to all federal, state and local government web resources and services.